Time;durP1;ratioP1;P1;durP2;ratioP2;P2;SDS_P1;SDS_P2;PMS_P1;PMS_P2;Temp;Humidity;BMP_temperature;BMP_pressure;BME280_temperature;BME280_humidity;BME280_pressure;Samples;Min_cycle;Max_cycle;Signal;HPM_P1;HPM_P2
2021/04/18 00:00:44;;;;;;;19.38;5.50;;;;;;;6.56;76.08;102331.22;5018820;28;20045;-77
2021/04/18 00:03:14;;;;;;;14.25;5.30;;;;;;;6.61;75.78;102337.03;5002551;28;20482;-74
2021/04/18 00:05:40;;;;;;;23.80;5.18;;;;;;;6.50;76.16;102318.53;5018682;28;20045;-78
2021/04/18 00:08:06;;;;;;;20.23;5.57;;;;;;;6.54;76.03;102311.38;5028574;28;20136;-78
2021/04/18 00:10:43;;;;;;;15.23;5.28;;;;;;;6.54;76.24;102314.81;5015239;28;20052;-79
2021/04/18 00:13:13;;;;;;;15.43;5.45;;;;;;;6.54;76.22;102317.44;5014045;28;20049;-79
2021/04/18 00:16:06;;;;;;;14.57;6.50;;;;;;;6.66;75.93;102317.69;5019853;28;20044;-79
2021/04/18 00:18:33;;;;;;;16.67;6.38;;;;;;;6.66;76.66;102318.53;5000348;28;20059;-78
2021/04/18 00:20:59;;;;;;;16.73;6.38;;;;;;;6.53;76.53;102307.91;5007130;28;20046;-80
2021/04/18 00:23:26;;;;;;;21.35;6.40;;;;;;;6.62;76.59;102304.81;5028936;28;20045;-77
2021/04/18 00:25:52;;;;;;;18.17;6.60;;;;;;;6.54;77.13;102298.34;4991705;28;20042;-80
2021/04/18 00:28:31;;;;;;;19.08;6.75;;;;;;;6.50;77.23;102295.06;5006728;28;20045;-77
2021/04/18 00:30:58;;;;;;;17.83;6.63;;;;;;;6.51;77.31;102288.91;5010357;28;20060;-78
2021/04/18 00:33:25;;;;;;;25.40;7.10;;;;;;;6.52;77.94;102288.00;5051162;28;20057;-79
2021/04/18 00:35:52;;;;;;;26.55;6.88;;;;;;;6.64;77.78;102312.56;5022677;28;20053;-79
2021/04/18 00:38:20;;;;;;;21.15;7.10;;;;;;;6.63;77.95;102300.47;5000721;28;20072;-79
2021/04/18 00:40:46;;;;;;;16.58;6.57;;;;;;;6.62;77.85;102294.38;5030338;28;20052;-80
2021/04/18 00:43:12;;;;;;;18.08;6.85;;;;;;;6.50;77.86;102284.63;5013851;28;20424;-78
2021/04/18 00:45:39;;;;;;;25.25;6.60;;;;;;;6.58;77.66;102292.03;5003919;28;20045;-77
2021/04/18 00:48:08;;;;;;;17.90;6.75;;;;;;;6.60;77.44;102291.03;5011606;28;20097;-79
2021/04/18 00:50:37;;;;;;;18.33;6.68;;;;;;;6.74;77.43;102312.91;5020849;28;20080;-79
2021/04/18 00:53:08;;;;;;;23.25;6.82;;;;;;;6.68;77.26;102301.03;5011868;28;20056;-79
2021/04/18 00:55:39;;;;;;;22.40;6.68;;;;;;;6.52;78.04;102293.22;5012658;28;20083;-76
2021/04/18 00:58:06;;;;;;;22.05;6.72;;;;;;;6.68;77.57;102303.66;5009361;28;20072;-78
2021/04/18 01:00:34;;;;;;;16.63;6.22;;;;;;;6.48;78.58;102289.09;5015236;28;20043;-79
2021/04/18 01:03:02;;;;;;;17.08;6.68;;;;;;;6.54;78.54;102299.19;5012480;28;20052;-76
2021/04/18 01:05:30;;;;;;;25.13;6.68;;;;;;;6.51;78.24;102290.69;5005516;28;20046;-77
2021/04/18 01:08:15;;;;;;;19.63;6.80;;;;;;;6.51;78.27;102304.56;4996973;28;20135;-80
2021/04/18 01:11:05;;;;;;;13.10;5.85;;;;;;;6.54;78.52;102299.19;5027927;28;20045;-78
2021/04/18 01:13:31;;;;;;;20.35;6.85;;;;;;;6.41;78.72;102283.34;5018363;28;20045;-78
2021/04/18 01:15:58;;;;;;;16.67;6.47;;;;;;;6.32;78.88;102285.59;5019468;28;20053;-78
2021/04/18 01:18:24;;;;;;;16.90;6.88;;;;;;;6.28;78.62;102271.91;5017723;28;20052;-78
2021/04/18 01:21:05;;;;;;;19.08;6.70;;;;;;;6.31;78.96;102282.16;5026238;28;20075;-79
2021/04/18 01:23:57;;;;;;;19.17;6.20;;;;;;;6.20;79.42;102277.50;5024973;28;20037;-79
2021/04/18 01:26:23;;;;;;;15.75;6.07;;;;;;;6.15;79.06;102261.28;5013802;28;20393;-80
2021/04/18 01:28:52;;;;;;;16.10;6.95;;;;;;;6.22;78.95;102277.44;4995144;28;20049;-80
2021/04/18 01:31:19;;;;;;;17.50;6.35;;;;;;;6.03;79.70;102256.72;5011925;28;20053;-78
2021/04/18 01:33:48;;;;;;;21.05;6.28;;;;;;;6.01;80.03;102259.41;5021547;28;20045;-78
2021/04/18 01:36:14;;;;;;;14.15;6.00;;;;;;;6.00;79.53;102262.06;5015428;28;20043;-77
2021/04/18 01:38:40;;;;;;;11.85;5.95;;;;;;;6.09;79.87;102285.03;5010013;28;20239;-77
2021/04/18 01:41:09;;;;;;;16.00;6.38;;;;;;;6.04;80.11;102279.22;5019693;28;20056;-77
2021/04/18 01:43:38;;;;;;;15.98;6.78;;;;;;;6.06;79.96;102276.53;5015143;28;20050;-78
2021/04/18 01:46:17;;;;;;;17.23;6.22;;;;;;;5.96;80.47;102281.38;5020198;28;20056;-78
2021/04/18 01:48:44;;;;;;;16.17;6.57;;;;;;;5.89;80.17;102266.97;5014196;28;20038;-77
2021/04/18 01:51:10;;;;;;;13.40;6.40;;;;;;;5.83;80.50;102265.50;5015133;28;20045;-76
2021/04/18 01:53:40;;;;;;;22.20;5.82;;;;;;;5.66;80.56;102259.38;5014590;28;20041;-78
2021/04/18 01:56:07;;;;;;;18.90;6.13;;;;;;;5.72;80.91;102281.66;5018501;28;20048;-80
2021/04/18 01:58:41;;;;;;;14.40;6.30;;;;;;;5.76;80.50;102280.59;5033876;28;20111;-79
2021/04/18 02:01:27;;;;;;;16.55;5.50;;;;;;;5.61;80.73;102258.81;5017134;28;20050;-78
2021/04/18 02:04:42;;;;;;;12.07;5.53;;;;;;;5.69;79.56;102268.81;5006637;28;20091;-76
2021/04/18 02:07:09;;;;;;;16.23;5.93;;;;;;;5.63;79.90;102266.50;5008078;28;20117;-79
2021/04/18 02:09:37;;;;;;;13.57;5.30;;;;;;;5.63;79.83;102280.38;5012156;28;20038;-75
2021/04/18 02:12:07;;;;;;;14.82;4.57;;;;;;;5.57;79.99;102274.63;5016865;28;20088;-79
2021/04/18 02:14:38;;;;;;;11.60;5.78;;;;;;;5.56;79.84;102276.41;5014293;28;20041;-76
2021/04/18 02:17:08;;;;;;;8.90;5.10;;;;;;;5.52;79.67;102277.47;5002525;28;20080;-78
2021/04/18 02:19:34;;;;;;;16.38;5.40;;;;;;;5.58;78.59;102265.91;5020929;28;20041;-78
2021/04/18 02:22:01;;;;;;;11.13;5.25;;;;;;;5.56;78.72;102267.75;5016355;28;20049;-77
2021/04/18 02:24:28;;;;;;;12.57;5.10;;;;;;;5.65;78.55;102278.56;4999135;28;20037;-76
2021/04/18 02:26:54;;;;;;;12.73;4.88;;;;;;;5.56;78.41;102265.16;4998959;28;20580;-78
2021/04/18 02:29:32;;;;;;;17.75;5.25;;;;;;;5.60;78.13;102271.88;5022582;28;20041;-78
2021/04/18 02:32:03;;;;;;;12.85;4.57;;;;;;;5.48;78.98;102268.13;5014951;28;20048;-76
2021/04/18 02:34:32;;;;;;;11.65;4.70;;;;;;;5.42;78.33;102258.00;5011128;28;20041;-76
2021/04/18 02:36:59;;;;;;;15.45;4.82;;;;;;;5.43;78.39;102262.31;5046872;28;20573;-78
2021/04/18 02:39:27;;;;;;;9.80;4.50;;;;;;;5.28;79.05;102261.31;5012124;28;20033;-78
2021/04/18 02:41:54;;;;;;;14.70;4.55;;;;;;;5.20;79.62;102259.09;5012317;28;20132;-79
2021/04/18 02:44:20;;;;;;;13.82;4.60;;;;;;;5.07;79.59;102251.03;5021860;28;20045;-76
2021/04/18 02:46:47;;;;;;;13.45;4.25;;;;;;;5.09;79.66;102257.91;5032011;28;20538;-78
2021/04/18 02:49:13;;;;;;;13.77;5.07;;;;;;;5.06;79.17;102258.88;5027808;28;20042;-76
2021/04/18 02:51:40;;;;;;;15.27;4.47;;;;;;;4.99;79.83;102260.97;5000239;28;20068;-77
2021/04/18 02:54:06;;;;;;;19.05;4.55;;;;;;;5.00;79.10;102265.22;5012296;28;20037;-75
2021/04/18 02:56:35;;;;;;;16.50;4.63;;;;;;;5.04;79.30;102265.94;5015855;28;20407;-77
2021/04/18 02:59:05;;;;;;;13.68;4.68;;;;;;;4.87;79.42;102256.31;5032313;28;20044;-78
2021/04/18 03:01:31;;;;;;;14.43;4.03;;;;;;;4.89;79.78;102262.28;5015213;28;20411;-79
2021/04/18 03:03:58;;;;;;;12.93;4.07;;;;;;;4.75;79.48;102251.72;5016125;28;20030;-77
2021/04/18 03:06:24;;;;;;;7.97;3.75;;;;;;;4.78;79.95;102261.94;5007915;28;20132;-75
2021/04/18 03:08:50;;;;;;;12.88;4.15;;;;;;;4.77;79.76;102271.53;5041418;28;20040;-77
2021/04/18 03:11:17;;;;;;;16.88;4.10;;;;;;;4.68;80.61;102259.78;5015620;28;20136;-78
2021/04/18 03:13:46;;;;;;;10.45;3.78;;;;;;;4.75;80.43;102262.94;5005708;28;20075;-77
2021/04/18 03:16:12;;;;;;;13.52;4.57;;;;;;;4.64;80.75;102268.63;5006964;28;20075;-79
2021/04/18 03:18:41;;;;;;;15.95;4.47;;;;;;;4.61;80.85;102260.97;5028261;28;20040;-76
2021/04/18 03:21:07;;;;;;;15.20;4.63;;;;;;;4.51;81.28;102267.50;5037699;28;20042;-75
2021/04/18 03:23:33;;;;;;;10.23;3.92;;;;;;;4.60;81.60;102264.50;5048307;28;20049;-77
2021/04/18 03:26:01;;;;;;;12.93;4.13;;;;;;;4.53;81.81;102255.28;5018399;28;20076;-78
2021/04/18 03:28:27;;;;;;;11.27;3.83;;;;;;;4.42;81.51;102252.34;5014744;28;20100;-76
2021/04/18 03:30:54;;;;;;;17.90;4.43;;;;;;;4.39;81.50;102258.53;5009889;28;20547;-78
2021/04/18 03:33:23;;;;;;;11.32;3.85;;;;;;;4.39;82.39;102262.84;5039766;28;20092;-77
2021/04/18 03:35:58;;;;;;;15.50;4.22;;;;;;;4.28;82.25;102261.59;5030540;28;20049;-78
2021/04/18 03:38:24;;;;;;;11.23;4.13;;;;;;;4.22;82.61;102269.69;5029576;28;20045;-78
2021/04/18 03:40:50;;;;;;;13.25;4.72;;;;;;;4.31;82.92;102273.59;5008652;28;20045;-75
2021/04/18 03:43:15;;;;;;;11.95;4.47;;;;;;;4.28;82.90;102266.78;5015014;28;20825;-77
2021/04/18 03:45:42;;;;;;;14.52;4.22;;;;;;;4.18;82.59;102270.72;5034858;28;20049;-75
2021/04/18 03:48:08;;;;;;;10.68;3.90;;;;;;;4.13;83.26;102277.88;5031664;28;20106;-75
2021/04/18 03:50:34;;;;;;;13.18;4.32;;;;;;;4.03;83.46;102277.44;5041385;28;20527;-78
2021/04/18 03:53:14;;;;;;;11.32;3.97;;;;;;;3.94;83.68;102275.22;5017308;28;20041;-77
2021/04/18 03:55:43;;;;;;;12.73;3.78;;;;;;;3.92;84.05;102281.38;5009459;28;20036;-77
2021/04/18 03:58:10;;;;;;;15.55;4.55;;;;;;;3.80;84.11;102275.78;5048624;28;20037;-77
2021/04/18 04:00:40;;;;;;;10.80;4.00;;;;;;;3.73;84.41;102273.53;5006746;28;20045;-77
2021/04/18 04:03:05;;;;;;;15.48;4.38;;;;;;;3.60;84.90;102268.00;5003026;28;20045;-75
2021/04/18 04:05:36;;;;;;;10.38;3.97;;;;;;;3.48;85.10;102265.03;5038170;28;20116;-77
2021/04/18 04:08:06;;;;;;;15.18;4.50;;;;;;;3.45;85.19;102259.97;5014352;28;20106;-77
2021/04/18 04:10:31;;;;;;;8.88;4.05;;;;;;;3.48;86.08;102265.03;5025933;28;20042;-78
2021/04/18 04:12:57;;;;;;;15.15;4.40;;;;;;;3.49;85.76;102277.09;5011968;28;20377;-77
2021/04/18 04:15:22;;;;;;;12.13;4.35;;;;;;;3.48;85.52;102261.56;5021314;28;20483;-77
2021/04/18 04:17:51;;;;;;;17.70;4.85;;;;;;;3.53;85.20;102266.59;5023378;28;20044;-77
2021/04/18 04:20:35;;;;;;;11.68;4.13;;;;;;;3.55;85.46;102276.00;5041972;28;20193;-77
2021/04/18 04:23:19;;;;;;;15.43;4.60;;;;;;;3.63;85.28;102280.84;5048486;28;20072;-78
2021/04/18 04:25:45;;;;;;;12.40;4.43;;;;;;;3.61;85.01;102278.31;5017167;28;20061;-78
2021/04/18 04:28:12;;;;;;;15.13;4.97;;;;;;;3.55;85.55;102273.38;5027401;28;20094;-77
2021/04/18 04:30:38;;;;;;;16.83;4.80;;;;;;;3.61;85.59;102278.31;5010725;28;20041;-76
2021/04/18 04:33:03;;;;;;;14.40;4.30;;;;;;;3.62;85.35;102277.44;5002337;28;20041;-77
2021/04/18 04:35:29;;;;;;;13.48;4.55;;;;;;;3.65;85.31;102272.09;5009971;28;20041;-77
2021/04/18 04:37:54;;;;;;;11.95;4.85;;;;;;;3.66;85.41;102273.78;5022064;28;20044;-74
2021/04/18 04:40:20;;;;;;;14.43;4.28;;;;;;;3.65;84.88;102292.00;5042163;28;20061;-78
2021/04/18 04:42:46;;;;;;;13.68;4.00;;;;;;;3.63;85.30;102291.22;5032875;28;20128;-77
2021/04/18 04:45:12;;;;;;;15.93;4.88;;;;;;;3.56;84.97;102284.59;5012564;28;20076;-78
2021/04/18 04:47:37;;;;;;;11.88;4.45;;;;;;;3.57;85.52;102287.16;5016931;28;20069;-78
2021/04/18 04:50:03;;;;;;;17.25;5.15;;;;;;;3.56;85.42;102290.66;5006589;28;20481;-78
2021/04/18 04:52:29;;;;;;;15.00;4.45;;;;;;;3.55;85.16;102288.13;4996316;28;20041;-76
2021/04/18 04:54:54;;;;;;;13.40;4.47;;;;;;;3.58;85.33;102288.84;5043289;28;20106;-79
2021/04/18 04:57:21;;;;;;;12.25;4.70;;;;;;;3.64;85.77;102287.75;5003456;28;20042;-78
2021/04/18 04:59:47;;;;;;;16.30;4.63;;;;;;;3.64;85.61;102291.19;5043543;28;20045;-80
2021/04/18 05:02:13;;;;;;;18.77;5.43;;;;;;;3.67;85.76;102288.47;4997403;28;20513;-75
2021/04/18 05:04:38;;;;;;;14.95;5.03;;;;;;;3.71;86.03;102294.34;5014682;28;20047;-77
2021/04/18 05:07:04;;;;;;;14.43;4.55;;;;;;;3.79;85.30;102294.06;5009787;28;20037;-78
2021/04/18 05:09:29;;;;;;;16.13;5.10;;;;;;;3.81;85.71;102293.06;5027229;28;20061;-77
2021/04/18 05:11:55;;;;;;;12.98;4.57;;;;;;;3.88;85.71;102291.91;5014249;28;20065;-78
2021/04/18 05:14:21;;;;;;;16.67;5.00;;;;;;;3.88;84.92;102289.31;4994323;28;20431;-77
2021/04/18 05:16:46;;;;;;;14.07;4.95;;;;;;;3.93;85.16;102289.09;5027563;28;20037;-76
2021/04/18 05:19:12;;;;;;;13.88;4.65;;;;;;;3.95;84.85;102304.63;4997065;28;20069;-77
2021/04/18 05:21:37;;;;;;;12.65;5.50;;;;;;;3.89;85.21;102301.38;5013852;28;20052;-76
2021/04/18 05:24:03;;;;;;;13.10;5.15;;;;;;;3.86;85.35;102304.13;4997309;28;20062;-76
2021/04/18 05:26:29;;;;;;;19.60;5.55;;;;;;;3.88;85.38;102302.28;5014327;28;20092;-77
2021/04/18 05:28:55;;;;;;;14.02;4.70;;;;;;;3.84;84.82;102307.66;4994038;28;20456;-79
2021/04/18 05:31:21;;;;;;;16.00;4.93;;;;;;;3.85;85.10;102310.19;5024580;28;20350;-76
2021/04/18 05:33:47;;;;;;;13.35;4.50;;;;;;;3.84;85.39;102305.06;5026974;28;20511;-77
2021/04/18 05:36:13;;;;;;;15.05;4.85;;;;;;;3.81;84.95;102305.22;4999369;28;20102;-75
2021/04/18 05:38:38;;;;;;;11.68;4.85;;;;;;;3.83;85.54;102306.81;5018903;28;20066;-77
2021/04/18 05:41:04;;;;;;;15.13;5.55;;;;;;;3.82;85.42;102305.13;4996917;28;20064;-78
2021/04/18 05:43:29;;;;;;;13.15;4.93;;;;;;;3.78;85.24;102308.75;5035223;28;20048;-76
2021/04/18 05:45:55;;;;;;;15.93;4.75;;;;;;;3.80;85.19;102309.53;5048361;28;20109;-76
2021/04/18 05:48:20;;;;;;;18.45;5.50;;;;;;;3.77;85.56;102301.91;5018973;28;20192;-78
2021/04/18 05:50:46;;;;;;;16.48;5.25;;;;;;;3.77;85.58;102296.72;5030916;28;20053;-78
2021/04/18 05:53:13;;;;;;;17.23;4.63;;;;;;;3.85;85.33;102304.16;5034639;28;20113;-77
2021/04/18 05:55:39;;;;;;;17.63;5.63;;;;;;;3.96;85.35;102301.13;5026366;28;20072;-78
2021/04/18 05:58:06;;;;;;;15.95;5.45;;;;;;;4.04;85.37;102307.66;5026757;28;20652;-77
2021/04/18 06:00:32;;;;;;;16.73;5.95;;;;;;;4.14;85.10;102307.28;5009627;28;20048;-76
2021/04/18 06:02:57;;;;;;;11.82;5.25;;;;;;;4.24;85.34;102309.41;5020169;28;20052;-78
2021/04/18 06:05:23;;;;;;;15.85;5.72;;;;;;;4.22;85.04;102303.44;5027804;28;20048;-77
2021/04/18 06:07:48;;;;;;;17.45;6.22;;;;;;;4.29;85.18;102304.00;5041171;28;20079;-77
2021/04/18 06:10:14;;;;;;;16.85;5.78;;;;;;;4.32;85.47;102296.09;5041983;28;20045;-77
2021/04/18 06:12:40;;;;;;;17.10;5.05;;;;;;;4.52;84.90;102303.00;5023863;28;20499;-76
2021/04/18 06:15:07;;;;;;;18.80;5.60;;;;;;;4.64;84.38;102305.03;5014211;28;20078;-78
2021/04/18 06:17:32;;;;;;;16.80;5.93;;;;;;;4.79;83.60;102300.06;5007181;28;20540;-77
2021/04/18 06:20:08;;;;;;;14.32;5.60;;;;;;;5.05;83.63;102293.63;5024180;28;20049;-78
2021/04/18 06:22:34;;;;;;;15.07;5.20;;;;;;;5.31;82.01;102284.56;5015583;28;20049;-76
2021/04/18 06:25:00;;;;;;;18.08;5.13;;;;;;;5.60;80.30;102290.13;5044026;28;20044;-77
2021/04/18 06:27:25;;;;;;;16.40;5.10;;;;;;;5.79;80.77;102288.25;5025032;28;20045;-78
2021/04/18 06:29:51;;;;;;;30.63;6.25;;;;;;;5.90;79.76;102287.72;5028872;28;20539;-78
2021/04/18 06:32:16;;;;;;;13.90;5.22;;;;;;;5.87;78.91;102281.81;5028331;28;20056;-77
2021/04/18 06:34:42;;;;;;;16.27;5.25;;;;;;;5.99;78.78;102294.25;5029780;28;20135;-80
2021/04/18 06:37:07;;;;;;;16.70;5.20;;;;;;;6.10;78.59;102306.72;5030690;28;20045;-76
2021/04/18 06:39:33;;;;;;;15.93;5.32;;;;;;;6.24;78.25;102306.84;5035675;28;20036;-77
2021/04/18 06:42:04;;;;;;;13.38;4.95;;;;;;;6.43;77.50;102307.56;5004071;28;20042;-77
2021/04/18 06:44:31;;;;;;;13.07;4.75;;;;;;;6.34;77.60;102299.41;5017902;28;20061;-77
2021/04/18 06:46:59;;;;;;;18.27;5.03;;;;;;;6.29;78.28;102290.97;5014921;28;20041;-78
2021/04/18 06:49:26;;;;;;;13.20;4.80;;;;;;;6.33;77.08;102288.13;5032137;28;20045;-76
2021/04/18 06:51:58;;;;;;;12.65;4.25;;;;;;;6.39;76.99;102284.38;5032939;28;20055;-77
2021/04/18 06:54:31;;;;;;;15.80;4.97;;;;;;;6.58;76.71;102289.44;5028666;28;20036;-78
2021/04/18 06:56:56;;;;;;;12.10;4.93;;;;;;;6.80;75.90;102287.34;5036049;28;20159;-77
2021/04/18 06:59:22;;;;;;;12.95;4.68;;;;;;;7.04;74.84;102283.44;5032459;28;20049;-76
2021/04/18 07:01:47;;;;;;;14.65;5.20;;;;;;;7.01;74.90;102284.47;5020764;28;20550;-76
2021/04/18 07:04:16;;;;;;;17.92;5.70;;;;;;;6.98;74.37;102282.88;5035311;28;20107;-77
2021/04/18 07:06:49;;;;;;;17.33;4.93;;;;;;;7.28;74.33;102283.84;5037630;28;20072;-80
2021/04/18 07:09:17;;;;;;;11.55;4.97;;;;;;;7.47;73.17;102284.47;5028477;28;20041;-76
2021/04/18 07:11:57;;;;;;;14.77;4.43;;;;;;;7.70;73.10;102288.34;5037571;28;20052;-78
2021/04/18 07:14:25;;;;;;;15.65;4.85;;;;;;;7.81;72.05;102290.34;5022038;28;20046;-78
2021/04/18 07:16:53;;;;;;;16.55;5.32;;;;;;;7.74;71.84;102291.63;5053596;28;20107;-80
2021/04/18 07:19:25;;;;;;;13.63;4.43;;;;;;;7.69;72.08;102286.69;5013955;28;20135;-77
2021/04/18 07:21:54;;;;;;;16.85;5.40;;;;;;;7.69;72.73;102278.84;5014623;28;20064;-77
2021/04/18 07:24:21;;;;;;;19.63;4.90;;;;;;;7.75;72.37;102278.47;5014989;28;20053;-78
2021/04/18 07:26:58;;;;;;;16.17;5.10;;;;;;;7.79;71.90;102289.59;5030807;28;20038;-77
2021/04/18 07:29:25;;;;;;;15.40;4.90;;;;;;;7.83;72.08;102295.47;5020882;28;20079;-78
2021/04/18 07:31:52;;;;;;;12.65;5.05;;;;;;;7.88;72.01;102288.22;5029254;28;20103;-77
2021/04/18 07:34:21;;;;;;;17.30;5.05;;;;;;;7.98;71.55;102289.34;5041916;28;20487;-77
2021/04/18 07:37:04;;;;;;;17.35;5.55;;;;;;;8.16;71.76;102287.41;4994098;28;20030;-76
2021/04/18 07:39:42;;;;;;;20.08;5.43;;;;;;;8.34;71.73;102281.06;5031089;28;20049;-81
2021/04/18 07:42:08;;;;;;;16.00;5.10;;;;;;;8.33;70.28;102288.97;5011781;28;20436;-80
2021/04/18 07:44:34;;;;;;;18.70;5.43;;;;;;;8.49;70.86;102294.13;5032190;28;20037;-79
2021/04/18 07:47:00;;;;;;;14.90;5.10;;;;;;;8.26;71.07;102290.28;5035943;28;20046;-78
2021/04/18 07:49:25;;;;;;;10.90;4.47;;;;;;;8.27;72.33;102297.19;5036390;28;20385;-79
2021/04/18 07:51:51;;;;;;;14.25;4.45;;;;;;;8.40;71.24;102290.28;5019054;28;20050;-78
2021/04/18 07:54:18;;;;;;;18.02;4.80;;;;;;;8.60;70.46;102283.00;5040489;28;20037;-79
2021/04/18 07:56:48;;;;;;;16.42;5.30;;;;;;;8.98;69.67;102282.34;5014484;28;20064;-80
2021/04/18 07:59:17;;;;;;;14.25;4.50;;;;;;;9.26;67.89;102270.94;5032753;28;20504;-78
2021/04/18 08:01:43;;;;;;;19.90;5.50;;;;;;;9.44;67.82;102274.13;5031729;28;20124;-77
2021/04/18 08:04:10;;;;;;;13.50;4.85;;;;;;;9.48;67.93;102265.13;5030297;28;20121;-78
2021/04/18 08:06:38;;;;;;;19.30;5.28;;;;;;;9.55;67.15;102266.41;5014105;28;20661;-77
2021/04/18 08:09:20;;;;;;;13.80;5.10;;;;;;;9.60;67.12;102272.16;4999223;28;20045;-76
2021/04/18 08:12:12;;;;;;;14.40;5.10;;;;;;;9.57;66.52;102263.66;5012978;28;20041;-76
2021/04/18 08:14:41;;;;;;;16.15;5.13;;;;;;;9.75;66.47;102262.44;5020096;28;20046;-77
2021/04/18 08:17:09;;;;;;;12.77;5.32;;;;;;;9.85;66.13;102262.63;5028213;28;20530;-77
2021/04/18 08:19:36;;;;;;;14.13;5.18;;;;;;;10.08;66.59;102254.03;5030464;28;20041;-76
2021/04/18 08:22:03;;;;;;;16.88;5.10;;;;;;;10.19;66.18;102257.69;4995853;28;20053;-76
2021/04/18 08:24:33;;;;;;;18.08;6.30;;;;;;;9.66;67.61;102260.44;4994414;28;20496;-75
2021/04/18 08:27:11;;;;;;;20.70;6.55;;;;;;;9.74;67.56;102251.13;5027849;28;20046;-75
2021/04/18 08:30:03;;;;;;;16.20;5.65;;;;;;;10.04;67.44;102263.06;5011775;28;20052;-77
2021/04/18 08:32:43;;;;;;;12.85;5.65;;;;;;;10.36;67.42;102261.78;5019035;28;20518;-75
2021/04/18 08:35:15;;;;;;;16.55;5.80;;;;;;;10.36;65.01;102256.53;5011327;28;20046;-77
2021/04/18 08:37:41;;;;;;;17.30;5.45;;;;;;;10.57;64.64;102248.94;5034668;28;20046;-78
2021/04/18 08:40:07;;;;;;;15.55;5.78;;;;;;;10.54;65.01;102257.03;5021388;28;20041;-75
2021/04/18 08:42:34;;;;;;;10.15;5.53;;;;;;;10.68;65.30;102255.09;5018541;28;20053;-76
2021/04/18 08:45:00;;;;;;;16.60;5.95;;;;;;;10.93;64.49;102263.84;5001351;28;20037;-78
2021/04/18 08:47:28;;;;;;;16.52;6.45;;;;;;;10.76;64.69;102257.19;4999338;28;20496;-76
2021/04/18 08:50:18;;;;;;;18.33;6.32;;;;;;;10.67;65.55;102261.28;5001058;28;20049;-76
2021/04/18 08:52:44;;;;;;;15.63;6.72;;;;;;;10.47;66.13;102262.72;5027836;28;20041;-77
2021/04/18 08:55:11;;;;;;;19.05;6.65;;;;;;;10.79;66.33;102271.84;5016838;28;20106;-75
2021/04/18 08:57:37;;;;;;;15.60;6.50;;;;;;;10.93;65.61;102276.13;5028424;28;20095;-75
2021/04/18 09:00:12;;;;;;;19.67;6.53;;;;;;;10.71;65.73;102270.63;5032953;28;20510;-75
2021/04/18 09:02:38;;;;;;;16.23;6.30;;;;;;;11.08;65.19;102277.63;4997556;28;20400;-75
2021/04/18 09:05:09;;;;;;;16.73;6.53;;;;;;;11.08;64.63;102273.22;5034000;28;20044;-76
2021/04/18 09:07:36;;;;;;;16.73;6.72;;;;;;;10.98;65.78;102280.09;5029140;28;20447;-76
2021/04/18 09:10:08;;;;;;;14.07;6.40;;;;;;;11.10;64.68;102287.06;5010306;28;20414;-77
2021/04/18 09:12:34;;;;;;;10.55;6.57;;;;;;;11.29;65.94;102276.03;5028084;28;20037;-76
2021/04/18 09:15:06;;;;;;;17.33;6.43;;;;;;;11.25;65.41;102279.03;5026802;28;20052;-76
2021/04/18 09:17:33;;;;;;;13.90;6.00;;;;;;;11.59;64.53;102273.88;5011646;28;20515;-77
2021/04/18 09:20:15;;;;;;;13.63;6.00;;;;;;;12.07;63.91;102271.09;5025689;28;20033;-78
2021/04/18 09:22:41;;;;;;;15.68;6.10;;;;;;;11.78;63.02;102270.69;5014189;28;20038;-77
2021/04/18 09:25:09;;;;;;;13.07;6.20;;;;;;;11.77;63.77;102269.84;5010960;28;20921;-77
2021/04/18 09:27:42;;;;;;;15.05;5.70;;;;;;;12.11;63.32;102263.81;5016728;28;20486;-77
2021/04/18 09:30:10;;;;;;;12.27;5.38;;;;;;;12.24;62.19;102260.13;5008344;28;20088;-77
2021/04/18 09:32:39;;;;;;;12.88;6.00;;;;;;;12.09;63.42;102263.91;5015902;28;20117;-76
2021/04/18 09:35:09;;;;;;;12.70;5.65;;;;;;;12.31;64.26;102268.34;5012168;28;20129;-76
2021/04/18 09:38:01;;;;;;;13.35;5.65;;;;;;;12.38;62.96;102258.19;5014965;28;20045;-76
2021/04/18 09:40:29;;;;;;;13.90;6.18;;;;;;;12.42;62.73;102263.06;5005616;28;20426;-79
2021/04/18 09:42:55;;;;;;;12.93;5.95;;;;;;;12.72;62.31;102264.22;5028547;28;20048;-77
2021/04/18 09:45:26;;;;;;;15.75;6.10;;;;;;;12.68;60.94;102267.22;5023745;28;20048;-77
2021/04/18 09:48:17;;;;;;;12.30;5.60;;;;;;;12.80;61.48;102260.97;5027407;28;20046;-75
2021/04/18 09:50:57;;;;;;;15.75;5.65;;;;;;;12.89;60.91;102252.31;5005791;28;20077;-75
2021/04/18 09:53:24;;;;;;;14.50;5.90;;;;;;;13.09;60.54;102255.97;5026761;28;20495;-78
2021/04/18 09:56:08;;;;;;;11.25;5.30;;;;;;;13.21;59.66;102247.03;5008658;28;20129;-76
2021/04/18 09:58:39;;;;;;;10.50;4.90;;;;;;;13.30;60.99;102263.94;5027551;28;20059;-77
2021/04/18 10:01:24;;;;;;;14.07;5.47;;;;;;;13.21;61.23;102262.84;5026389;28;20504;-78
2021/04/18 10:03:50;;;;;;;12.40;5.28;;;;;;;13.30;60.29;102261.31;5027357;28;20824;-76
2021/04/18 10:06:15;;;;;;;13.38;5.40;;;;;;;13.30;59.43;102257.78;5010944;28;20045;-77
2021/04/18 10:08:52;;;;;;;12.25;5.55;;;;;;;13.44;59.30;102258.34;5026345;28;20046;-77
2021/04/18 10:11:20;;;;;;;10.90;5.13;;;;;;;13.62;58.29;102255.97;5023660;28;20056;-76
2021/04/18 10:13:55;;;;;;;14.52;4.90;;;;;;;13.65;58.29;102260.13;5008293;28;20053;-76
2021/04/18 10:16:26;;;;;;;13.80;5.25;;;;;;;13.86;57.93;102262.75;5024461;28;20045;-76
2021/04/18 10:19:10;;;;;;;13.10;5.00;;;;;;;13.93;57.66;102260.44;5017787;28;20482;-76
2021/04/18 10:21:40;;;;;;;8.88;4.93;;;;;;;13.88;57.23;102252.94;5000917;28;20111;-77
2021/04/18 10:24:33;;;;;;;12.38;5.47;;;;;;;13.69;57.23;102261.53;5026134;28;20115;-76
2021/04/18 10:27:21;;;;;;;16.35;5.68;;;;;;;13.62;56.70;102252.50;5017529;28;20500;-76
2021/04/18 10:29:48;;;;;;;;;;;;;;;13.55;58.88;102254.81;5020130;28;20122;-76
2021/04/18 10:32:14;;;;;;;11.85;5.43;;;;;;;13.61;56.77;102248.19;4997021;28;20004;-77
2021/04/18 10:34:40;;;;;;;12.18;5.43;;;;;;;13.50;56.34;102245.59;5028559;28;20057;-77
2021/04/18 10:37:06;;;;;;;11.95;5.03;;;;;;;13.85;56.68;102250.53;5030692;28;20041;-76
2021/04/18 10:39:33;;;;;;;12.60;5.22;;;;;;;13.85;58.08;102250.53;5025415;28;20133;-75
2021/04/18 10:41:59;;;;;;;8.40;4.50;;;;;;;13.77;56.29;102256.47;5029685;28;20527;-77
2021/04/18 10:44:24;;;;;;;11.63;4.82;;;;;;;13.91;55.80;102251.81;5014675;28;20041;-76
2021/04/18 10:46:52;;;;;;;12.05;5.10;;;;;;;14.05;55.16;102247.97;5016028;28;20132;-76
2021/04/18 10:49:18;;;;;;;11.38;4.72;;;;;;;13.98;55.92;102251.16;5033562;28;20463;-77
2021/04/18 10:51:44;;;;;;;10.80;4.63;;;;;;;14.30;55.08;102236.16;5043392;28;20199;-77
2021/04/18 10:54:10;;;;;;;9.80;4.90;;;;;;;14.28;54.43;102235.41;4985735;28;20041;-76
2021/04/18 10:56:36;;;;;;;13.68;4.25;;;;;;;14.65;54.33;102221.66;5025606;28;20582;-78
2021/04/18 10:59:03;;;;;;;9.13;4.63;;;;;;;14.61;53.54;102221.06;5036059;28;20052;-76
2021/04/18 11:01:29;;;;;;;9.50;4.18;;;;;;;14.81;53.89;102223.75;4993163;28;20034;-75
2021/04/18 11:03:54;;;;;;;8.40;4.18;;;;;;;14.99;52.05;102224.72;5018185;28;20033;-78
2021/04/18 11:06:20;;;;;;;9.27;4.60;;;;;;;14.62;52.83;102230.69;5013329;28;20041;-76
2021/04/18 11:08:45;;;;;;;8.25;4.80;;;;;;;14.82;53.42;102223.59;5045726;28;20098;-76
2021/04/18 11:11:11;;;;;;;8.35;4.20;;;;;;;15.13;52.45;102226.94;5012373;28;20080;-76
2021/04/18 11:13:38;;;;;;;11.32;4.90;;;;;;;15.19;51.13;102225.53;5029676;28;20396;-76
2021/04/18 11:16:04;;;;;;;9.25;4.38;;;;;;;15.03;51.40;102223.47;5022449;28;20625;-74
2021/04/18 11:18:30;;;;;;;9.77;4.50;;;;;;;14.99;51.48;102222.94;5016432;28;20439;-78
2021/04/18 11:20:55;;;;;;;13.18;4.65;;;;;;;15.18;52.13;102219.44;5033391;28;20037;-78
2021/04/18 11:23:21;;;;;;;15.07;4.68;;;;;;;15.24;52.31;102227.75;5031354;28;20092;-77
2021/04/18 11:25:46;;;;;;;10.82;4.43;;;;;;;15.12;52.95;102224.44;5030107;28;20041;-78
2021/04/18 11:28:12;;;;;;;11.73;5.35;;;;;;;15.36;51.78;102229.28;5027959;28;20049;-77
2021/04/18 11:30:37;;;;;;;11.13;5.80;;;;;;;14.96;52.54;102223.19;5010863;28;20052;-78
2021/04/18 11:33:03;;;;;;;17.08;6.15;;;;;;;14.88;53.47;102224.84;5030007;28;20053;-77